sensor_id;sensor_type;location;lat;lon;timestamp;pressure;altitude;pressure_sealevel;temperature;humidity
15998;BME280;8103;51.340;12.326;2023-04-10T00:00:28;101196.16;;;8.76;nan
15998;BME280;8103;51.340;12.326;2023-04-10T00:03:04;101195.13;;;8.77;nan
15998;BME280;8103;51.340;12.326;2023-04-10T00:05:35;101194.53;;;8.75;nan
15998;BME280;8103;51.340;12.326;2023-04-10T00:08:02;101191.47;;;8.72;nan
15998;BME280;8103;51.340;12.326;2023-04-10T00:10:29;101192.50;;;8.71;nan
15998;BME280;8103;51.340;12.326;2023-04-10T00:12:57;101199.34;;;8.67;nan
15998;BME280;8103;51.340;12.326;2023-04-10T00:15:26;101205.91;;;8.64;nan
15998;BME280;8103;51.340;12.326;2023-04-10T00:17:54;101196.69;;;8.60;nan
15998;BME280;8103;51.340;12.326;2023-04-10T00:20:24;101193.03;;;8.54;nan
15998;BME280;8103;51.340;12.326;2023-04-10T00:22:55;101199.00;;;8.50;nan
15998;BME280;8103;51.340;12.326;2023-04-10T00:25:24;101196.75;;;8.47;nan
15998;BME280;8103;51.340;12.326;2023-04-10T00:27:53;101197.59;;;8.47;nan
15998;BME280;8103;51.340;12.326;2023-04-10T00:30:23;101187.91;;;8.46;nan
15998;BME280;8103;51.340;12.326;2023-04-10T00:32:50;101192.25;;;8.41;nan
15998;BME280;8103;51.340;12.326;2023-04-10T00:35:19;101182.00;;;8.38;nan
15998;BME280;8103;51.340;12.326;2023-04-10T00:37:48;101183.47;;;8.34;nan
15998;BME280;8103;51.340;12.326;2023-04-10T00:40:16;101182.84;;;8.32;nan
15998;BME280;8103;51.340;12.326;2023-04-10T00:42:43;101180.19;;;8.32;nan
15998;BME280;8103;51.340;12.326;2023-04-10T00:45:10;101180.59;;;8.29;nan
15998;BME280;8103;51.340;12.326;2023-04-10T00:47:37;101177.34;;;8.27;nan
15998;BME280;8103;51.340;12.326;2023-04-10T00:50:05;101180.22;;;8.25;nan
15998;BME280;8103;51.340;12.326;2023-04-10T00:52:32;101171.81;;;8.22;nan
15998;BME280;8103;51.340;12.326;2023-04-10T00:54:59;101173.03;;;8.19;nan
15998;BME280;8103;51.340;12.326;2023-04-10T00:57:26;101170.56;;;8.18;nan
15998;BME280;8103;51.340;12.326;2023-04-10T00:59:54;101173.25;;;8.18;nan
15998;BME280;8103;51.340;12.326;2023-04-10T01:02:21;101169.31;;;8.14;nan
15998;BME280;8103;51.340;12.326;2023-04-10T01:04:48;101162.34;;;8.13;nan
15998;BME280;8103;51.340;12.326;2023-04-10T01:10:37;101167.28;;;8.09;nan
15998;BME280;8103;51.340;12.326;2023-04-10T01:13:33;101157.84;;;8.07;nan
15998;BME280;8103;51.340;12.326;2023-04-10T01:16:15;101158.06;;;8.05;nan
15998;BME280;8103;51.340;12.326;2023-04-10T01:18:59;101152.94;;;8.04;nan
15998;BME280;8103;51.340;12.326;2023-04-10T01:21:33;101155.81;;;8.02;nan
15998;BME280;8103;51.340;12.326;2023-04-10T01:24:49;101156.25;;;7.99;nan
15998;BME280;8103;51.340;12.326;2023-04-10T01:27:39;101147.84;;;7.96;nan
15998;BME280;8103;51.340;12.326;2023-04-10T01:30:15;101145.59;;;7.93;nan
15998;BME280;8103;51.340;12.326;2023-04-10T01:32:44;101145.19;;;7.89;nan
15998;BME280;8103;51.340;12.326;2023-04-10T01:35:14;101155.06;;;7.89;nan
15998;BME280;8103;51.340;12.326;2023-04-10T01:37:44;101162.47;;;7.87;nan
15998;BME280;8103;51.340;12.326;2023-04-10T01:40:17;101154.66;;;7.85;nan
15998;BME280;8103;51.340;12.326;2023-04-10T01:42:50;101157.53;;;7.84;nan
15998;BME280;8103;51.340;12.326;2023-04-10T01:45:23;101151.38;;;7.83;nan
15998;BME280;8103;51.340;12.326;2023-04-10T01:47:52;101147.06;;;7.82;nan
15998;BME280;8103;51.340;12.326;2023-04-10T01:50:21;101152.63;;;7.81;nan
15998;BME280;8103;51.340;12.326;2023-04-10T01:52:51;101152.22;;;7.77;nan
15998;BME280;8103;51.340;12.326;2023-04-10T01:55:20;101147.50;;;7.73;nan
15998;BME280;8103;51.340;12.326;2023-04-10T01:57:48;101148.53;;;7.72;nan
15998;BME280;8103;51.340;12.326;2023-04-10T02:00:15;101147.50;;;7.73;nan
15998;BME280;8103;51.340;12.326;2023-04-10T02:02:43;101143.19;;;7.72;nan
15998;BME280;8103;51.340;12.326;2023-04-10T02:05:10;101138.06;;;7.70;nan
15998;BME280;8103;51.340;12.326;2023-04-10T02:10:24;101154.72;;;7.66;nan
15998;BME280;8103;51.340;12.326;2023-04-10T02:13:00;101151.44;;;7.64;nan
15998;BME280;8103;51.340;12.326;2023-04-10T02:15:31;101155.13;;;7.63;nan
15998;BME280;8103;51.340;12.326;2023-04-10T02:18:01;101155.53;;;7.60;nan
15998;BME280;8103;51.340;12.326;2023-04-10T02:20:33;101156.78;;;7.57;nan
15998;BME280;8103;51.340;12.326;2023-04-10T02:23:02;101160.72;;;7.55;nan
15998;BME280;8103;51.340;12.326;2023-04-10T02:25:34;101152.28;;;7.51;nan
15998;BME280;8103;51.340;12.326;2023-04-10T02:28:06;101155.16;;;7.50;nan
15998;BME280;8103;51.340;12.326;2023-04-10T02:30:34;101153.53;;;7.49;nan
15998;BME280;8103;51.340;12.326;2023-04-10T02:33:01;101155.56;;;7.47;nan
15998;BME280;8103;51.340;12.326;2023-04-10T02:35:28;101160.91;;;7.47;nan
15998;BME280;8103;51.340;12.326;2023-04-10T02:37:55;101163.00;;;7.45;nan
15998;BME280;8103;51.340;12.326;2023-04-10T02:40:22;101156.41;;;7.41;nan
15998;BME280;8103;51.340;12.326;2023-04-10T02:42:49;101158.88;;;7.36;nan
15998;BME280;8103;51.340;12.326;2023-04-10T02:45:16;101166.28;;;7.34;nan
15998;BME280;8103;51.340;12.326;2023-04-10T02:47:43;101160.53;;;7.30;nan
15998;BME280;8103;51.340;12.326;2023-04-10T02:50:10;101168.34;;;7.25;nan
15998;BME280;8103;51.340;12.326;2023-04-10T02:52:37;101167.91;;;7.22;nan
15998;BME280;8103;51.340;12.326;2023-04-10T02:55:05;101172.84;;;7.18;nan
15998;BME280;8103;51.340;12.326;2023-04-10T02:57:33;101169.56;;;7.16;nan
15998;BME280;8103;51.340;12.326;2023-04-10T03:00:01;101174.47;;;7.13;nan
15998;BME280;8103;51.340;12.326;2023-04-10T03:02:30;101175.50;;;7.12;nan
15998;BME280;8103;51.340;12.326;2023-04-10T03:04:59;101180.25;;;7.10;nan
15998;BME280;8103;51.340;12.326;2023-04-10T03:07:27;101176.94;;;7.08;nan
15998;BME280;8103;51.340;12.326;2023-04-10T03:09:54;101176.13;;;7.07;nan
15998;BME280;8103;51.340;12.326;2023-04-10T03:12:20;101178.19;;;7.05;nan
15998;BME280;8103;51.340;12.326;2023-04-10T03:14:47;101174.91;;;7.03;nan
15998;BME280;8103;51.340;12.326;2023-04-10T03:17:14;101175.09;;;7.02;nan
15998;BME280;8103;51.340;12.326;2023-04-10T03:19:41;101170.19;;;6.99;nan
15998;BME280;8103;51.340;12.326;2023-04-10T03:22:08;101177.16;;;7.00;nan
15998;BME280;8103;51.340;12.326;2023-04-10T03:24:36;101168.75;;;7.03;nan
15998;BME280;8103;51.340;12.326;2023-04-10T03:27:06;101162.59;;;7.02;nan
15998;BME280;8103;51.340;12.326;2023-04-10T03:29:33;101164.66;;;7.00;nan
15998;BME280;8103;51.340;12.326;2023-04-10T03:32:00;101162.81;;;7.01;nan
15998;BME280;8103;51.340;12.326;2023-04-10T03:34:27;101161.38;;;7.05;nan
15998;BME280;8103;51.340;12.326;2023-04-10T03:36:54;101157.25;;;7.09;nan
15998;BME280;8103;51.340;12.326;2023-04-10T03:39:21;101157.25;;;7.09;nan
15998;BME280;8103;51.340;12.326;2023-04-10T03:41:52;101158.69;;;7.11;nan
15998;BME280;8103;51.340;12.326;2023-04-10T03:44:19;101157.25;;;7.09;nan
15998;BME280;8103;51.340;12.326;2023-04-10T03:46:46;101157.88;;;7.11;nan
15998;BME280;8103;51.340;12.326;2023-04-10T03:49:13;101156.03;;;7.05;nan
15998;BME280;8103;51.340;12.326;2023-04-10T03:51:40;101156.84;;;6.99;nan
15998;BME280;8103;51.340;12.326;2023-04-10T03:54:07;101156.22;;;6.97;nan
15998;BME280;8103;51.340;12.326;2023-04-10T03:56:34;101155.00;;;6.93;nan
15998;BME280;8103;51.340;12.326;2023-04-10T03:59:01;101159.72;;;6.91;nan
15998;BME280;8103;51.340;12.326;2023-04-10T04:01:27;101158.06;;;6.90;nan
15998;BME280;8103;51.340;12.326;2023-04-10T04:03:54;101161.78;;;6.89;nan
15998;BME280;8103;51.340;12.326;2023-04-10T04:06:21;101156.22;;;6.84;nan
15998;BME280;8103;51.340;12.326;2023-04-10T04:08:48;101159.50;;;6.79;nan
15998;BME280;8103;51.340;12.326;2023-04-10T04:11:15;101162.56;;;6.76;nan
15998;BME280;8103;51.340;12.326;2023-04-10T04:13:42;101161.75;;;6.76;nan
15998;BME280;8103;51.340;12.326;2023-04-10T04:16:09;101166.25;;;6.75;nan
15998;BME280;8103;51.340;12.326;2023-04-10T04:18:36;101172.41;;;6.76;nan
15998;BME280;8103;51.340;12.326;2023-04-10T04:21:05;101171.38;;;6.77;nan
15998;BME280;8103;51.340;12.326;2023-04-10T04:23:34;101162.16;;;6.73;nan
15998;BME280;8103;51.340;12.326;2023-04-10T04:26:01;101163.16;;;6.72;nan
15998;BME280;8103;51.340;12.326;2023-04-10T04:28:27;101166.28;;;6.69;nan
15998;BME280;8103;51.340;12.326;2023-04-10T04:30:55;101170.34;;;6.65;nan
15998;BME280;8103;51.340;12.326;2023-04-10T04:33:22;101165.84;;;6.65;nan
15998;BME280;8103;51.340;12.326;2023-04-10T04:35:49;101166.88;;;6.64;nan
15998;BME280;8103;51.340;12.326;2023-04-10T04:38:16;101168.72;;;6.64;nan
15998;BME280;8103;51.340;12.326;2023-04-10T04:40:45;101170.75;;;6.62;nan
15998;BME280;8103;51.340;12.326;2023-04-10T04:43:12;101166.84;;;6.57;nan
15998;BME280;8103;51.340;12.326;2023-04-10T04:45:39;101168.28;;;6.60;nan
15998;BME280;8103;51.340;12.326;2023-04-10T04:48:06;101176.69;;;6.64;nan
15998;BME280;8103;51.340;12.326;2023-04-10T04:50:32;101175.66;;;6.65;nan
15998;BME280;8103;51.340;12.326;2023-04-10T04:52:59;101177.94;;;6.68;nan
15998;BME280;8103;51.340;12.326;2023-04-10T04:55:26;101173.63;;;6.73;nan
15998;BME280;8103;51.340;12.326;2023-04-10T04:57:53;101177.75;;;6.76;nan
15998;BME280;8103;51.340;12.326;2023-04-10T05:00:20;101177.34;;;6.79;nan
15998;BME280;8103;51.340;12.326;2023-04-10T05:02:47;101169.16;;;6.80;nan
15998;BME280;8103;51.340;12.326;2023-04-10T05:05:13;101183.06;;;6.82;nan
15998;BME280;8103;51.340;12.326;2023-04-10T05:07:41;101182.28;;;6.82;nan
15998;BME280;8103;51.340;12.326;2023-04-10T05:10:08;101173.44;;;6.81;nan
15998;BME280;8103;51.340;12.326;2023-04-10T05:12:35;101178.38;;;6.84;nan
15998;BME280;8103;51.340;12.326;2023-04-10T05:15:02;101169.78;;;6.89;nan
15998;BME280;8103;51.340;12.326;2023-04-10T05:17:29;101176.53;;;6.98;nan
15998;BME280;8103;51.340;12.326;2023-04-10T05:19:56;101180.63;;;7.00;nan
15998;BME280;8103;51.340;12.326;2023-04-10T05:22:23;101174.47;;;7.00;nan
15998;BME280;8103;51.340;12.326;2023-04-10T05:24:50;101176.13;;;7.01;nan
15998;BME280;8103;51.340;12.326;2023-04-10T05:27:17;101176.53;;;7.04;nan
15998;BME280;8103;51.340;12.326;2023-04-10T05:29:44;101178.19;;;7.05;nan
15998;BME280;8103;51.340;12.326;2023-04-10T05:32:11;101178.19;;;6.99;nan
15998;BME280;8103;51.340;12.326;2023-04-10T05:34:38;101178.81;;;7.01;nan
15998;BME280;8103;51.340;12.326;2023-04-10T05:37:05;101181.06;;;7.04;nan
15998;BME280;8103;51.340;12.326;2023-04-10T05:39:31;101181.88;;;7.11;nan
15998;BME280;8103;51.340;12.326;2023-04-10T05:41:58;101177.16;;;7.19;nan
15998;BME280;8103;51.340;12.326;2023-04-10T05:44:25;101185.56;;;7.29;nan
15998;BME280;8103;51.340;12.326;2023-04-10T05:46:52;101186.16;;;7.38;nan
15998;BME280;8103;51.340;12.326;2023-04-10T05:49:18;101184.91;;;7.47;nan
15998;BME280;8103;51.340;12.326;2023-04-10T05:55:49;101184.69;;;7.61;nan
15998;BME280;8103;51.340;12.326;2023-04-10T05:58:21;101186.75;;;7.66;nan
15998;BME280;8103;51.340;12.326;2023-04-10T06:00:48;101184.88;;;7.73;nan
15998;BME280;8103;51.340;12.326;2023-04-10T06:03:15;101179.94;;;7.83;nan
15998;BME280;8103;51.340;12.326;2023-04-10T06:05:42;101189.78;;;7.89;nan
15998;BME280;8103;51.340;12.326;2023-04-10T06:08:09;101181.94;;;7.94;nan
15998;BME280;8103;51.340;12.326;2023-04-10T06:10:36;101175.97;;;7.98;nan
15998;BME280;8103;51.340;12.326;2023-04-10T06:13:03;101182.53;;;8.02;nan
15998;BME280;8103;51.340;12.326;2023-04-10T06:15:30;101185.56;;;8.25;nan
15998;BME280;8103;51.340;12.326;2023-04-10T06:17:57;101187.69;;;8.48;nan
15998;BME280;8103;51.340;12.326;2023-04-10T06:20:24;101189.72;;;8.59;nan
15998;BME280;8103;51.340;12.326;2023-04-10T06:22:50;101176.38;;;8.52;nan
15998;BME280;8103;51.340;12.326;2023-04-10T06:25:18;101174.94;;;8.50;nan
15998;BME280;8103;51.340;12.326;2023-04-10T06:27:45;101169.19;;;8.53;nan
15998;BME280;8103;51.340;12.326;2023-04-10T06:30:15;101170.38;;;8.57;nan
15998;BME280;8103;51.340;12.326;2023-04-10T06:32:41;101168.91;;;8.61;nan
15998;BME280;8103;51.340;12.326;2023-04-10T06:35:09;101172.13;;;8.69;nan
15998;BME280;8103;51.340;12.326;2023-04-10T06:37:36;101168.56;;;8.82;nan
15998;BME280;8103;51.340;12.326;2023-04-10T06:40:09;101168.91;;;8.92;nan
15998;BME280;8103;51.340;12.326;2023-04-10T06:42:37;101165.16;;;9.00;nan
15998;BME280;8103;51.340;12.326;2023-04-10T06:45:04;101160.53;;;9.13;nan
15998;BME280;8103;51.340;12.326;2023-04-10T06:47:31;101161.06;;;9.22;nan
15998;BME280;8103;51.340;12.326;2023-04-10T06:49:58;101154.63;;;9.29;nan
15998;BME280;8103;51.340;12.326;2023-04-10T06:52:25;101159.22;;;9.40;nan
15998;BME280;8103;51.340;12.326;2023-04-10T06:54:52;101161.34;;;9.56;nan
15998;BME280;8103;51.340;12.326;2023-04-10T06:57:19;101164.34;;;9.66;nan
15998;BME280;8103;51.340;12.326;2023-04-10T06:59:45;101162.97;;;9.75;nan
15998;BME280;8103;51.340;12.326;2023-04-10T07:02:12;101150.81;;;9.79;nan
15998;BME280;8103;51.340;12.326;2023-04-10T07:04:39;101160.63;;;9.85;nan
15998;BME280;8103;51.340;12.326;2023-04-10T07:07:06;101156.81;;;9.93;nan
15998;BME280;8103;51.340;12.326;2023-04-10T07:09:35;101159.88;;;9.96;nan
15998;BME280;8103;51.340;12.326;2023-04-10T07:12:02;101156.91;;;10.04;nan
15998;BME280;8103;51.340;12.326;2023-04-10T07:14:31;101150.81;;;10.15;nan
15998;BME280;8103;51.340;12.326;2023-04-10T07:17:00;101154.38;;;10.27;nan
15998;BME280;8103;51.340;12.326;2023-04-10T07:19:28;101143.34;;;10.47;nan
15998;BME280;8103;51.340;12.326;2023-04-10T07:21:54;101161.53;;;10.74;nan
15998;BME280;8103;51.340;12.326;2023-04-10T07:24:21;101162.97;;;11.00;nan
15998;BME280;8103;51.340;12.326;2023-04-10T07:26:48;101157.50;;;11.07;nan
15998;BME280;8103;51.340;12.326;2023-04-10T07:29:15;101165.81;;;11.17;nan
15998;BME280;8103;51.340;12.326;2023-04-10T07:31:42;101156.94;;;11.28;nan
15998;BME280;8103;51.340;12.326;2023-04-10T07:34:10;101153.09;;;11.35;nan
15998;BME280;8103;51.340;12.326;2023-04-10T07:36:37;101155.31;;;11.50;nan
15998;BME280;8103;51.340;12.326;2023-04-10T07:39:05;101149.13;;;11.72;nan
15998;BME280;8103;51.340;12.326;2023-04-10T07:41:31;101142.28;;;12.04;nan
15998;BME280;8103;51.340;12.326;2023-04-10T07:48:05;101142.19;;;13.33;nan
15998;BME280;8103;51.340;12.326;2023-04-10T07:50:32;101138.09;;;14.07;nan
15998;BME280;8103;51.340;12.326;2023-04-10T07:52:58;101136.03;;;14.35;nan
15998;BME280;8103;51.340;12.326;2023-04-10T07:55:29;101132.94;;;14.80;nan
15998;BME280;8103;51.340;12.326;2023-04-10T07:57:56;101139.84;;;14.98;nan
15998;BME280;8103;51.340;12.326;2023-04-10T08:00:22;101140.56;;;15.15;nan
15998;BME280;8103;51.340;12.326;2023-04-10T08:02:49;101128.88;;;15.46;nan
15998;BME280;8103;51.340;12.326;2023-04-10T08:05:17;101128.56;;;15.79;nan
15998;BME280;8103;51.340;12.326;2023-04-10T08:07:44;101133.78;;;15.95;nan
15998;BME280;8103;51.340;12.326;2023-04-10T08:10:11;101122.34;;;16.55;nan
15998;BME280;8103;51.340;12.326;2023-04-10T08:12:38;101116.41;;;17.18;nan
15998;BME280;8103;51.340;12.326;2023-04-10T08:15:05;101122.34;;;17.45;nan
15998;BME280;8103;51.340;12.326;2023-04-10T08:17:34;101120.66;;;17.64;nan
15998;BME280;8103;51.340;12.326;2023-04-10T08:20:04;101122.22;;;17.90;nan
15998;BME280;8103;51.340;12.326;2023-04-10T08:22:32;101117.50;;;18.64;nan
15998;BME280;8103;51.340;12.326;2023-04-10T08:24:59;101113.47;;;19.29;nan
15998;BME280;8103;51.340;12.326;2023-04-10T08:27:26;101122.28;;;19.68;nan
15998;BME280;8103;51.340;12.326;2023-04-10T08:29:54;101119.66;;;20.05;nan
15998;BME280;8103;51.340;12.326;2023-04-10T08:32:21;101109.41;;;20.58;nan
15998;BME280;8103;51.340;12.326;2023-04-10T08:34:48;101111.97;;;19.65;nan
15998;BME280;8103;51.340;12.326;2023-04-10T08:41:21;101103.94;;;20.21;nan
15998;BME280;8103;51.340;12.326;2023-04-10T08:47:57;101104.88;;;20.85;nan
15998;BME280;8103;51.340;12.326;2023-04-10T08:50:32;101090.53;;;20.06;nan
15998;BME280;8103;51.340;12.326;2023-04-10T08:53:10;101089.53;;;20.76;nan
15998;BME280;8103;51.340;12.326;2023-04-10T08:55:39;101092.75;;;21.42;nan
15998;BME280;8103;51.340;12.326;2023-04-10T08:58:07;101082.31;;;22.47;nan
15998;BME280;8103;51.340;12.326;2023-04-10T09:00:35;101093.97;;;22.39;nan
15998;BME280;8103;51.340;12.326;2023-04-10T09:03:09;101081.84;;;21.96;nan
15998;BME280;8103;51.340;12.326;2023-04-10T09:05:41;101083.34;;;22.38;nan
15998;BME280;8103;51.340;12.326;2023-04-10T09:08:08;101076.50;;;22.40;nan
15998;BME280;8103;51.340;12.326;2023-04-10T09:14:36;101070.53;;;23.05;nan
15998;BME280;8103;51.340;12.326;2023-04-10T09:17:22;101066.78;;;24.01;nan
15998;BME280;8103;51.340;12.326;2023-04-10T09:19:54;101069.09;;;24.50;nan
15998;BME280;8103;51.340;12.326;2023-04-10T09:22:34;101070.66;;;24.00;nan
15998;BME280;8103;51.340;12.326;2023-04-10T09:25:03;101072.47;;;24.89;nan
15998;BME280;8103;51.340;12.326;2023-04-10T09:31:37;101060.63;;;25.98;nan
15998;BME280;8103;51.340;12.326;2023-04-10T09:34:20;101050.66;;;26.06;nan
15998;BME280;8103;51.340;12.326;2023-04-10T09:36:57;101048.16;;;26.21;nan
15998;BME280;8103;51.340;12.326;2023-04-10T09:39:37;101041.59;;;26.88;nan
15998;BME280;8103;51.340;12.326;2023-04-10T09:42:10;101043.09;;;26.97;nan
15998;BME280;8103;51.340;12.326;2023-04-10T09:44:41;101033.72;;;27.22;nan
15998;BME280;8103;51.340;12.326;2023-04-10T09:47:17;101034.59;;;27.95;nan
15998;BME280;8103;51.340;12.326;2023-04-10T09:49:52;101015.16;;;27.79;nan
15998;BME280;8103;51.340;12.326;2023-04-10T09:56:29;101010.16;;;28.76;nan
15998;BME280;8103;51.340;12.326;2023-04-10T09:58:59;101023.69;;;30.05;nan
15998;BME280;8103;51.340;12.326;2023-04-10T10:01:27;101013.41;;;29.56;nan
15998;BME280;8103;51.340;12.326;2023-04-10T10:04:01;101006.44;;;28.84;nan
15998;BME280;8103;51.340;12.326;2023-04-10T10:06:30;100993.28;;;28.50;nan
15998;BME280;8103;51.340;12.326;2023-04-10T10:09:03;100988.53;;;28.94;nan
15998;BME280;8103;51.340;12.326;2023-04-10T10:11:35;100986.97;;;29.24;nan
15998;BME280;8103;51.340;12.326;2023-04-10T10:14:08;100985.16;;;29.62;nan
15998;BME280;8103;51.340;12.326;2023-04-10T10:16:45;100983.81;;;29.56;nan
15998;BME280;8103;51.340;12.326;2023-04-10T10:19:27;100985.72;;;29.87;nan
15998;BME280;8103;51.340;12.326;2023-04-10T10:21:59;100975.59;;;30.90;nan
15998;BME280;8103;51.340;12.326;2023-04-10T10:24:31;100975.09;;;32.77;nan
15998;BME280;8103;51.340;12.326;2023-04-10T10:27:00;100969.75;;;34.06;nan
15998;BME280;8103;51.340;12.326;2023-04-10T10:29:31;100964.03;;;33.85;nan
15998;BME280;8103;51.340;12.326;2023-04-10T10:32:02;100966.22;;;33.52;nan
15998;BME280;8103;51.340;12.326;2023-04-10T10:34:29;100950.94;;;33.89;nan
15998;BME280;8103;51.340;12.326;2023-04-10T10:36:57;100948.50;;;35.19;nan
15998;BME280;8103;51.340;12.326;2023-04-10T10:39:58;100949.28;;;35.20;nan
15998;BME280;8103;51.340;12.326;2023-04-10T10:42:36;100942.88;;;34.84;nan
15998;BME280;8103;51.340;12.326;2023-04-10T10:45:15;100936.56;;;35.05;nan
15998;BME280;8103;51.340;12.326;2023-04-10T10:47:52;100924.53;;;35.29;nan
15998;BME280;8103;51.340;12.326;2023-04-10T10:50:20;100926.69;;;36.25;nan
15998;BME280;8103;51.340;12.326;2023-04-10T10:52:51;100927.16;;;37.26;nan
15998;BME280;8103;51.340;12.326;2023-04-10T10:57:59;100926.00;;;37.23;nan
15998;BME280;8103;51.340;12.326;2023-04-10T11:06:01;100919.06;;;39.35;nan
15998;BME280;8103;51.340;12.326;2023-04-10T11:08:36;100915.00;;;39.16;nan
15998;BME280;8103;51.340;12.326;2023-04-10T11:11:21;100903.16;;;37.95;nan
15998;BME280;8103;51.340;12.326;2023-04-10T11:17:52;100909.53;;;40.46;nan
15998;BME280;8103;51.340;12.326;2023-04-10T11:20:21;100880.78;;;41.03;nan
15998;BME280;8103;51.340;12.326;2023-04-10T11:23:11;100882.44;;;39.42;nan
15998;BME280;8103;51.340;12.326;2023-04-10T11:25:47;100881.75;;;40.48;nan
15998;BME280;8103;51.340;12.326;2023-04-10T11:28:34;100871.69;;;42.10;nan
15998;BME280;8103;51.340;12.326;2023-04-10T11:31:21;100870.16;;;43.39;nan
15998;BME280;8103;51.340;12.326;2023-04-10T11:36:26;100866.22;;;45.17;nan
15998;BME280;8103;51.340;12.326;2023-04-10T11:39:03;100858.91;;;45.70;nan
15998;BME280;8103;51.340;12.326;2023-04-10T11:41:41;100867.88;;;44.78;nan
15998;BME280;8103;51.340;12.326;2023-04-10T11:46:52;100858.06;;;42.21;nan
15998;BME280;8103;51.340;12.326;2023-04-10T11:49:25;100855.66;;;44.02;nan
15998;BME280;8103;51.340;12.326;2023-04-10T11:51:52;100846.44;;;43.03;nan
15998;BME280;8103;51.340;12.326;2023-04-10T12:01:01;100837.47;;;41.41;nan
15998;BME280;8103;51.340;12.326;2023-04-10T12:03:34;100827.19;;;39.55;nan
15998;BME280;8103;51.340;12.326;2023-04-10T12:06:04;100815.97;;;38.20;nan
15998;BME280;8103;51.340;12.326;2023-04-10T12:08:39;100806.03;;;37.85;nan
15998;BME280;8103;51.340;12.326;2023-04-10T12:11:09;100800.28;;;40.09;nan
15998;BME280;8103;51.340;12.326;2023-04-10T12:13:37;100790.31;;;41.83;nan
15998;BME280;8103;51.340;12.326;2023-04-10T12:16:09;100788.63;;;43.38;nan
15998;BME280;8103;51.340;12.326;2023-04-10T12:18:37;100777.53;;;44.89;nan
15998;BME280;8103;51.340;12.326;2023-04-10T12:21:05;100779.00;;;45.63;nan
15998;BME280;8103;51.340;12.326;2023-04-10T12:27:48;100766.84;;;40.91;nan
15998;BME280;8103;51.340;12.326;2023-04-10T12:30:17;100761.03;;;39.31;nan
15998;BME280;8103;51.340;12.326;2023-04-10T12:32:50;100756.88;;;39.00;nan
15998;BME280;8103;51.340;12.326;2023-04-10T12:35:37;100755.88;;;37.01;nan
15998;BME280;8103;51.340;12.326;2023-04-10T12:38:04;100753.94;;;35.20;nan
15998;BME280;8103;51.340;12.326;2023-04-10T12:40:31;100746.78;;;37.27;nan
15998;BME280;8103;51.340;12.326;2023-04-10T12:42:58;100743.41;;;36.68;nan
15998;BME280;8103;51.340;12.326;2023-04-10T12:45:44;100740.69;;;32.59;nan
15998;BME280;8103;51.340;12.326;2023-04-10T12:48:11;100730.00;;;30.55;nan
15998;BME280;8103;51.340;12.326;2023-04-10T12:50:48;100722.06;;;31.39;nan
15998;BME280;8103;51.340;12.326;2023-04-10T12:53:15;100717.97;;;32.03;nan
15998;BME280;8103;51.340;12.326;2023-04-10T12:56:13;100704.41;;;31.91;nan
15998;BME280;8103;51.340;12.326;2023-04-10T12:58:40;100705.50;;;34.65;nan
15998;BME280;8103;51.340;12.326;2023-04-10T13:01:10;100690.09;;;35.43;nan
15998;BME280;8103;51.340;12.326;2023-04-10T13:03:38;100686.72;;;34.76;nan
15998;BME280;8103;51.340;12.326;2023-04-10T13:06:06;100683.16;;;33.49;nan
15998;BME280;8103;51.340;12.326;2023-04-10T13:08:36;100682.81;;;32.75;nan
15998;BME280;8103;51.340;12.326;2023-04-10T13:11:04;100671.75;;;31.08;nan
15998;BME280;8103;51.340;12.326;2023-04-10T13:13:32;100678.06;;;29.17;nan
15998;BME280;8103;51.340;12.326;2023-04-10T13:15:59;100663.03;;;28.11;nan
15998;BME280;8103;51.340;12.326;2023-04-10T13:18:26;100655.53;;;29.34;nan
15998;BME280;8103;51.340;12.326;2023-04-10T13:20:53;100639.94;;;31.68;nan
15998;BME280;8103;51.340;12.326;2023-04-10T13:23:20;100639.28;;;33.07;nan
15998;BME280;8103;51.340;12.326;2023-04-10T13:25:46;100638.69;;;35.37;nan
15998;BME280;8103;51.340;12.326;2023-04-10T13:28:13;100631.22;;;36.96;nan
15998;BME280;8103;51.340;12.326;2023-04-10T13:30:41;100629.13;;;38.30;nan
15998;BME280;8103;51.340;12.326;2023-04-10T13:33:09;100615.91;;;37.57;nan
15998;BME280;8103;51.340;12.326;2023-04-10T13:35:38;100617.50;;;37.05;nan
15998;BME280;8103;51.340;12.326;2023-04-10T13:38:06;100607.78;;;36.50;nan
15998;BME280;8103;51.340;12.326;2023-04-10T13:40:35;100610.94;;;37.45;nan
15998;BME280;8103;51.340;12.326;2023-04-10T13:43:02;100608.53;;;37.17;nan
15998;BME280;8103;51.340;12.326;2023-04-10T13:45:28;100603.44;;;37.39;nan
15998;BME280;8103;51.340;12.326;2023-04-10T13:47:55;100593.16;;;35.94;nan
15998;BME280;8103;51.340;12.326;2023-04-10T13:50:22;100595.50;;;34.80;nan
15998;BME280;8103;51.340;12.326;2023-04-10T13:52:49;100578.09;;;33.00;nan
15998;BME280;8103;51.340;12.326;2023-04-10T13:55:18;100573.75;;;31.70;nan
15998;BME280;8103;51.340;12.326;2023-04-10T13:57:45;100562.50;;;30.46;nan
15998;BME280;8103;51.340;12.326;2023-04-10T14:00:13;100563.00;;;32.94;nan
15998;BME280;8103;51.340;12.326;2023-04-10T14:02:40;100554.94;;;34.65;nan
15998;BME280;8103;51.340;12.326;2023-04-10T14:05:09;100559.03;;;34.42;nan
15998;BME280;8103;51.340;12.326;2023-04-10T14:07:36;100561.53;;;33.91;nan
15998;BME280;8103;51.340;12.326;2023-04-10T14:10:03;100550.41;;;33.49;nan
15998;BME280;8103;51.340;12.326;2023-04-10T14:12:30;100554.34;;;33.80;nan
15998;BME280;8103;51.340;12.326;2023-04-10T14:14:58;100541.06;;;35.26;nan
15998;BME280;8103;51.340;12.326;2023-04-10T14:17:25;100536.44;;;35.57;nan
15998;BME280;8103;51.340;12.326;2023-04-10T14:19:53;100536.69;;;35.73;nan
15998;BME280;8103;51.340;12.326;2023-04-10T14:22:20;100535.31;;;34.93;nan
15998;BME280;8103;51.340;12.326;2023-04-10T14:24:47;100530.06;;;33.80;nan
15998;BME280;8103;51.340;12.326;2023-04-10T14:27:14;100534.34;;;32.83;nan
15998;BME280;8103;51.340;12.326;2023-04-10T14:29:42;100514.63;;;32.13;nan
15998;BME280;8103;51.340;12.326;2023-04-10T14:32:19;100525.91;;;31.33;nan